createdAt,value
2023-01-10T00:00:19.952Z,0
2023-01-10T00:01:26.781Z,0
2023-01-10T00:02:18.199Z,0
2023-01-10T00:03:18.748Z,0
2023-01-10T00:04:17.148Z,0
2023-01-10T00:05:16.866Z,0
2023-01-10T00:06:16.570Z,0
2023-01-10T00:07:16.658Z,0
2023-01-10T00:08:16.501Z,0
2023-01-10T00:09:16.690Z,0
2023-01-10T00:10:16.971Z,0
2023-01-10T00:11:16.280Z,0
2023-01-10T00:12:16.823Z,0
2023-01-10T00:13:16.306Z,0
2023-01-10T00:14:16.746Z,0.100
2023-01-10T00:15:17.463Z,0.239
2023-01-10T00:16:16.825Z,0.109
2023-01-10T00:17:16.556Z,0
2023-01-10T00:18:16.333Z,0.109
2023-01-10T00:19:16.420Z,0.340
2023-01-10T00:20:16.989Z,0.109
2023-01-10T00:21:16.181Z,0.109
2023-01-10T00:22:16.053Z,0.109
2023-01-10T00:23:16.113Z,0.219
2023-01-10T00:24:15.941Z,0.219
2023-01-10T00:25:16.497Z,0.109
2023-01-10T00:26:16.254Z,0
2023-01-10T00:27:15.866Z,0
2023-01-10T00:28:16.087Z,0
2023-01-10T00:29:15.994Z,0
2023-01-10T00:30:16.476Z,0
2023-01-10T00:31:16.337Z,0.109
2023-01-10T00:32:16.471Z,0.109
2023-01-10T00:33:16.684Z,0
2023-01-10T00:34:17.008Z,0
2023-01-10T00:35:17.447Z,0.109
2023-01-10T00:36:16.547Z,0
2023-01-10T00:37:16.809Z,0
2023-01-10T00:38:17.187Z,0
2023-01-10T00:39:16.911Z,0
2023-01-10T00:40:17.344Z,0
2023-01-10T00:41:16.679Z,0
2023-01-10T00:42:15.807Z,0
2023-01-10T00:43:17.071Z,0.109
2023-01-10T00:44:16.431Z,0
2023-01-10T00:45:16.928Z,0
2023-01-10T00:46:17.072Z,0
2023-01-10T00:47:17.187Z,0
2023-01-10T00:48:16.900Z,0
2023-01-10T00:49:17.335Z,0
2023-01-10T00:50:17.194Z,0
2023-01-10T00:51:16.734Z,0
2023-01-10T00:52:17.002Z,0
2023-01-10T00:53:17.558Z,0
2023-01-10T00:54:16.943Z,0.109
2023-01-10T00:55:16.842Z,0
2023-01-10T00:56:16.509Z,0
2023-01-10T00:57:17.386Z,0
2023-01-10T00:58:16.432Z,0
2023-01-10T00:59:17.024Z,0.109
2023-01-10T01:00:18.284Z,0
2023-01-10T01:01:18.388Z,0
2023-01-10T01:03:16.904Z,0
2023-01-10T01:04:16.072Z,0
2023-01-10T01:05:17.139Z,0
2023-01-10T01:06:17.120Z,0.109
2023-01-10T01:07:17.169Z,0
2023-01-10T01:08:16.415Z,0
2023-01-10T01:09:16.435Z,0
2023-01-10T01:10:16.152Z,0
2023-01-10T01:11:16.336Z,0
2023-01-10T01:12:16.201Z,0
2023-01-10T01:13:16.833Z,0
2023-01-10T01:14:16.746Z,0
2023-01-10T01:15:16.734Z,0.219
2023-01-10T01:16:16.493Z,0.109
2023-01-10T01:17:16.142Z,0
2023-01-10T01:18:16.661Z,0.109
2023-01-10T01:19:16.736Z,0
2023-01-10T01:20:16.448Z,0.119
2023-01-10T01:21:17.195Z,0
2023-01-10T01:22:16.222Z,0
2023-01-10T01:23:16.465Z,0
2023-01-10T01:24:16.228Z,0
2023-01-10T01:25:17.081Z,0
2023-01-10T01:26:15.876Z,0
2023-01-10T01:27:16.418Z,0
2023-01-10T01:28:16.023Z,0
2023-01-10T01:29:18.014Z,0
2023-01-10T01:30:17.155Z,0
2023-01-10T01:31:16.629Z,0
2023-01-10T01:32:16.325Z,0
2023-01-10T01:33:17.250Z,0
2023-01-10T01:34:17.167Z,0
2023-01-10T01:35:16.915Z,0
2023-01-10T01:36:16.630Z,0
2023-01-10T01:37:16.860Z,0
2023-01-10T01:38:16.412Z,0.109
2023-01-10T01:39:16.534Z,0
2023-01-10T01:40:16.875Z,0
2023-01-10T01:41:16.144Z,0
2023-01-10T01:42:16.827Z,0
2023-01-10T01:43:16.731Z,0
2023-01-10T01:44:16.647Z,0
2023-01-10T01:45:16.503Z,13600
2023-01-10T01:46:16.635Z,0
2023-01-10T01:47:16.531Z,0
2023-01-10T01:48:17.077Z,0
2023-01-10T01:49:16.944Z,0
2023-01-10T01:50:16.710Z,0
2023-01-10T01:51:16.494Z,0
2023-01-10T01:52:16.297Z,0
2023-01-10T01:53:16.306Z,0
2023-01-10T01:54:16.377Z,0
2023-01-10T01:56:16.595Z,0
2023-01-10T01:57:16.590Z,0
2023-01-10T01:58:16.457Z,0
2023-01-10T01:59:16.205Z,0
2023-01-10T02:00:16.895Z,0
2023-01-10T02:01:16.505Z,0
2023-01-10T02:02:16.035Z,0
2023-01-10T02:03:16.122Z,0
2023-01-10T02:04:15.988Z,0
2023-01-10T02:05:16.156Z,0
2023-01-10T02:06:15.718Z,0
2023-01-10T02:07:16.174Z,0
2023-01-10T02:08:16.078Z,0
2023-01-10T02:09:15.952Z,0
2023-01-10T02:10:15.898Z,0
2023-01-10T02:11:16.126Z,0
2023-01-10T02:12:15.982Z,0
2023-01-10T02:13:15.720Z,0
2023-01-10T02:14:15.740Z,0
2023-01-10T02:15:16.699Z,0
2023-01-10T02:16:16.258Z,13600
2023-01-10T02:17:16.186Z,0
2023-01-10T02:18:16.011Z,0
2023-01-10T02:19:16.167Z,0
2023-01-10T02:20:16.076Z,0
2023-01-10T02:21:16.269Z,0
2023-01-10T02:22:16.205Z,0
2023-01-10T02:23:16.261Z,0.109
2023-01-10T02:24:15.950Z,0.219
2023-01-10T02:25:16.358Z,0.219
2023-01-10T02:26:15.693Z,0
2023-01-10T02:27:15.911Z,0.109
2023-01-10T02:28:30.024Z,0
2023-01-10T02:29:16.175Z,0
2023-01-10T02:30:16.823Z,0
2023-01-10T02:31:16.774Z,0.109
2023-01-10T02:32:16.195Z,0
2023-01-10T02:33:16.036Z,0.109
2023-01-10T02:34:16.683Z,0
2023-01-10T02:35:16.315Z,0
2023-01-10T02:36:16.274Z,0.109
2023-01-10T02:37:16.084Z,0.219
2023-01-10T02:38:16.111Z,0
2023-01-10T02:39:16.352Z,0
2023-01-10T02:40:16.159Z,0.239
2023-01-10T02:41:16.811Z,0
2023-01-10T02:42:15.908Z,0
2023-01-10T02:43:16.594Z,0
2023-01-10T02:44:18.145Z,0
2023-01-10T02:45:16.771Z,0
2023-01-10T02:46:16.038Z,0
2023-01-10T02:47:16.492Z,0.119
2023-01-10T02:48:16.069Z,0
2023-01-10T02:49:16.477Z,0
2023-01-10T02:50:16.252Z,0
2023-01-10T02:51:16.113Z,0
2023-01-10T02:52:16.080Z,0
2023-01-10T02:53:16.335Z,0
2023-01-10T02:54:16.238Z,0
2023-01-10T02:55:16.575Z,0
2023-01-10T02:56:15.890Z,0
2023-01-10T02:57:16.194Z,0
2023-01-10T02:58:16.236Z,0
2023-01-10T02:59:16.159Z,0
2023-01-10T03:00:17.221Z,0
2023-01-10T03:01:16.322Z,0
2023-01-10T03:02:16.263Z,13600
2023-01-10T03:03:16.544Z,0
2023-01-10T03:04:16.379Z,13600
2023-01-10T03:05:16.305Z,13600
2023-01-10T03:06:15.886Z,13600
2023-01-10T03:07:16.353Z,0
2023-01-10T03:08:16.486Z,13600
2023-01-10T03:09:15.914Z,13600
2023-01-10T03:10:16.237Z,0
2023-01-10T03:11:16.515Z,0
2023-01-10T03:12:16.353Z,13600
2023-01-10T03:13:16.119Z,13600
2023-01-10T03:14:16.396Z,13600
2023-01-10T03:15:16.687Z,13600
2023-01-10T03:16:16.142Z,0
2023-01-10T03:17:16.412Z,13600
2023-01-10T03:18:16.473Z,13600
2023-01-10T03:19:16.555Z,13600
2023-01-10T03:20:16.442Z,13600
2023-01-10T03:21:16.559Z,13600
2023-01-10T03:22:16.186Z,0
2023-01-10T03:23:16.805Z,13600
2023-01-10T03:24:15.989Z,13600
2023-01-10T03:25:16.447Z,13600
2023-01-10T03:26:16.126Z,13600
2023-01-10T03:27:16.254Z,13600
2023-01-10T03:28:16.360Z,13600
2023-01-10T03:29:16.249Z,13600
2023-01-10T03:30:16.501Z,0
2023-01-10T03:31:16.365Z,0
2023-01-10T03:32:16.212Z,0
2023-01-10T03:33:16.591Z,0
2023-01-10T03:34:15.809Z,13600
2023-01-10T03:35:16.139Z,13600
2023-01-10T03:36:16.447Z,13600
2023-01-10T03:37:15.692Z,13600
2023-01-10T03:38:15.986Z,0
2023-01-10T03:39:16.145Z,13600
2023-01-10T03:40:16.379Z,13600
2023-01-10T03:41:16.373Z,0
2023-01-10T03:42:16.310Z,0
2023-01-10T03:43:16.452Z,0
2023-01-10T03:44:16.305Z,0
2023-01-10T03:45:16.578Z,0
2023-01-10T03:46:15.867Z,0
2023-01-10T03:47:15.953Z,0
2023-01-10T03:48:16.207Z,0
2023-01-10T03:49:16.412Z,0
2023-01-10T03:50:16.963Z,0
2023-01-10T03:51:15.674Z,0
2023-01-10T03:52:16.377Z,0
2023-01-10T03:53:16.291Z,0
2023-01-10T03:54:16.170Z,0
2023-01-10T03:55:16.324Z,0
2023-01-10T03:56:16.630Z,13600
2023-01-10T03:57:15.734Z,0
2023-01-10T03:58:15.865Z,0
2023-01-10T03:59:16.185Z,0
2023-01-10T04:00:16.917Z,0
2023-01-10T04:01:16.320Z,0
2023-01-10T04:02:16.219Z,0
2023-01-10T04:03:16.097Z,0
2023-01-10T04:04:16.993Z,0
2023-01-10T04:05:16.711Z,0
2023-01-10T04:06:16.678Z,0
2023-01-10T04:07:16.497Z,0
2023-01-10T04:08:16.617Z,0
2023-01-10T04:09:16.587Z,0
2023-01-10T04:10:16.756Z,0
2023-01-10T04:11:16.598Z,0
2023-01-10T04:12:17.087Z,0
2023-01-10T04:13:16.746Z,0
2023-01-10T04:14:15.951Z,0
2023-01-10T04:15:16.510Z,0
2023-01-10T04:16:16.212Z,0
2023-01-10T04:17:16.391Z,0
2023-01-10T04:18:16.709Z,13600
2023-01-10T04:19:16.269Z,0
2023-01-10T04:20:16.610Z,0
2023-01-10T04:21:16.166Z,0
2023-01-10T04:22:16.132Z,0
2023-01-10T04:23:16.338Z,0
2023-01-10T04:24:16.465Z,0
2023-01-10T04:25:16.660Z,0
2023-01-10T04:26:16.144Z,0
2023-01-10T04:27:16.302Z,0
2023-01-10T04:28:16.094Z,0
2023-01-10T04:29:16.403Z,0
2023-01-10T04:30:16.857Z,0
2023-01-10T04:31:15.948Z,0
2023-01-10T04:32:16.041Z,0
2023-01-10T04:33:16.171Z,0
2023-01-10T04:34:16.362Z,0
2023-01-10T04:35:16.751Z,0
2023-01-10T04:36:16.044Z,0
2023-01-10T04:37:16.444Z,0
2023-01-10T04:38:16.505Z,0
2023-01-10T04:39:16.162Z,0
2023-01-10T04:40:16.390Z,0
2023-01-10T04:41:16.301Z,0
2023-01-10T04:42:16.447Z,0
2023-01-10T04:43:16.289Z,0
2023-01-10T04:44:15.841Z,0
2023-01-10T04:45:16.344Z,0
2023-01-10T04:46:16.199Z,0
2023-01-10T04:47:16.145Z,0
2023-01-10T04:48:15.487Z,0
2023-01-10T04:49:15.855Z,0
2023-01-10T04:50:16.216Z,0
2023-01-10T04:51:16.356Z,0
2023-01-10T04:52:16.510Z,0
2023-01-10T04:53:16.129Z,0
2023-01-10T04:54:16.687Z,0
2023-01-10T04:55:16.888Z,0
2023-01-10T04:56:15.956Z,0
2023-01-10T04:57:16.741Z,0
2023-01-10T04:58:16.436Z,0
2023-01-10T04:59:16.670Z,0
2023-01-10T05:00:17.510Z,0
2023-01-10T05:01:16.556Z,0
2023-01-10T05:02:16.369Z,0
2023-01-10T05:03:16.697Z,0
2023-01-10T05:04:15.673Z,0
2023-01-10T05:05:16.356Z,0
2023-01-10T05:06:16.510Z,0.560
2023-01-10T05:07:16.092Z,0
2023-01-10T05:08:16.314Z,0
2023-01-10T05:09:15.732Z,0
2023-01-10T05:10:16.442Z,0.109
2023-01-10T05:11:16.508Z,0
2023-01-10T05:12:15.635Z,0.109
2023-01-10T05:13:16.112Z,0.449
2023-01-10T05:15:35.585Z,0.119
2023-01-10T05:16:16.436Z,0.370
2023-01-10T05:17:16.016Z,0.310
2023-01-10T05:18:16.226Z,0.680
2023-01-10T05:19:16.709Z,0.680
2023-01-10T05:20:16.169Z,0.449
2023-01-10T05:21:16.375Z,0.449
2023-01-10T05:22:16.293Z,0.449
2023-01-10T05:23:16.569Z,0.370
2023-01-10T05:24:16.526Z,0.560
2023-01-10T05:25:16.821Z,0.409
2023-01-10T05:26:16.079Z,0
2023-01-10T05:27:16.785Z,0.219
2023-01-10T05:28:15.582Z,0.219
2023-01-10T05:29:16.056Z,0.310
2023-01-10T05:30:16.625Z,0.610
2023-01-10T05:31:16.219Z,0
2023-01-10T05:32:16.253Z,0
2023-01-10T05:33:15.695Z,0
2023-01-10T05:34:15.535Z,0
2023-01-10T05:35:16.688Z,0
2023-01-10T05:36:16.000Z,0
2023-01-10T05:37:16.273Z,0
2023-01-10T05:38:15.975Z,0
2023-01-10T05:39:16.002Z,0
2023-01-10T05:40:16.073Z,0
2023-01-10T05:41:16.263Z,0
2023-01-10T05:42:16.439Z,0.109
2023-01-10T05:43:16.395Z,0
2023-01-10T05:44:16.311Z,0
2023-01-10T05:45:16.596Z,0
2023-01-10T05:46:15.785Z,0
2023-01-10T05:47:15.990Z,0
2023-01-10T05:48:16.463Z,0
2023-01-10T05:49:15.938Z,0
2023-01-10T05:50:19.023Z,0
2023-01-10T05:51:16.329Z,0
2023-01-10T05:52:16.446Z,0
2023-01-10T05:53:16.930Z,0
2023-01-10T05:54:15.877Z,0
2023-01-10T05:55:16.284Z,0
2023-01-10T05:56:16.485Z,0
2023-01-10T05:57:16.354Z,0
2023-01-10T05:58:16.282Z,0
2023-01-10T05:59:27.520Z,0
2023-01-10T06:00:17.159Z,0
2023-01-10T06:01:16.908Z,0
2023-01-10T06:02:16.422Z,0
2023-01-10T06:03:16.373Z,0
2023-01-10T06:04:16.421Z,0
2023-01-10T06:05:16.255Z,0
2023-01-10T06:06:16.487Z,0
2023-01-10T06:07:15.974Z,0
2023-01-10T06:08:16.755Z,0
2023-01-10T06:09:16.271Z,0
2023-01-10T06:10:18.160Z,0
2023-01-10T06:11:16.595Z,0
2023-01-10T06:12:15.808Z,0.449
2023-01-10T06:13:20.705Z,0.109
2023-01-10T06:14:15.783Z,0
2023-01-10T06:15:16.710Z,0
2023-01-10T06:16:15.875Z,0
2023-01-10T06:17:16.116Z,0.340
2023-01-10T06:18:16.209Z,0.109
2023-01-10T06:19:16.749Z,0.109
2023-01-10T06:20:16.594Z,0.109
2023-01-10T06:21:16.678Z,0.109
2023-01-10T06:22:16.269Z,0
2023-01-10T06:23:15.944Z,0.109
2023-01-10T06:24:16.318Z,0.109
2023-01-10T06:25:16.980Z,0.109
2023-01-10T06:26:16.485Z,0
2023-01-10T06:27:16.290Z,0
2023-01-10T06:28:16.607Z,0
2023-01-10T06:29:16.802Z,0.109
2023-01-10T06:30:16.979Z,0
2023-01-10T06:31:16.428Z,0
2023-01-10T06:32:16.525Z,0
2023-01-10T06:33:16.538Z,0
2023-01-10T06:34:17.088Z,0
2023-01-10T06:35:16.829Z,0
2023-01-10T06:36:16.384Z,0
2023-01-10T06:37:15.399Z,0
2023-01-10T06:38:16.728Z,0
2023-01-10T06:39:16.449Z,0
2023-01-10T06:40:16.559Z,13600
2023-01-10T06:41:16.083Z,0
2023-01-10T06:42:16.331Z,0
2023-01-10T06:43:16.559Z,13600
2023-01-10T06:44:16.044Z,0
2023-01-10T06:45:16.779Z,13600
2023-01-10T06:46:16.811Z,13600
2023-01-10T06:47:16.278Z,0
2023-01-10T06:48:16.755Z,13600
2023-01-10T06:49:16.399Z,13600
2023-01-10T06:50:16.921Z,13600
2023-01-10T06:51:19.832Z,13600
2023-01-10T06:52:16.804Z,0
2023-01-10T06:53:16.707Z,0
2023-01-10T06:54:17.780Z,0
2023-01-10T06:55:17.753Z,13600
2023-01-10T06:56:16.162Z,0.109
2023-01-10T06:57:16.451Z,0.170
2023-01-10T06:58:16.685Z,0.050
2023-01-10T06:59:16.206Z,0
2023-01-10T07:00:17.447Z,0.5
2023-01-10T07:01:16.570Z,0.620
2023-01-10T07:02:16.851Z,0.449
2023-01-10T07:03:17.185Z,0.519
2023-01-10T07:04:16.779Z,1.360
2023-01-10T07:05:17.792Z,1.659
2023-01-10T07:06:22.075Z,2.210
2023-01-10T07:07:16.824Z,2.819
2023-01-10T07:08:16.688Z,3.720
2023-01-10T07:09:16.940Z,4.769
2023-01-10T07:10:17.202Z,6.019
2023-01-10T07:11:17.517Z,7.239
2023-01-10T07:12:17.582Z,9
2023-01-10T07:13:16.336Z,10.78
2023-01-10T07:14:16.652Z,12.93
2023-01-10T07:15:16.929Z,15.39
2023-01-10T07:16:30.728Z,18.60
2023-01-10T07:17:16.518Z,21.52
2023-01-10T07:18:17.013Z,24.89
2023-01-10T07:19:17.033Z,28.5
2023-01-10T07:20:17.043Z,32.5
2023-01-10T07:21:16.592Z,37.09
2023-01-10T07:22:16.162Z,42
2023-01-10T07:23:16.594Z,47.5
2023-01-10T07:24:16.544Z,53.5
2023-01-10T07:25:15.817Z,59.20
2023-01-10T07:26:15.760Z,66.40
2023-01-10T07:27:16.013Z,74
2023-01-10T07:28:15.711Z,82.5
2023-01-10T07:29:27.023Z,91.40
2023-01-10T07:30:16.205Z,100
2023-01-10T07:31:16.485Z,111
2023-01-10T07:32:16.130Z,121
2023-01-10T07:33:16.064Z,132
2023-01-10T07:34:16.113Z,142
2023-01-10T07:35:16.354Z,152
2023-01-10T07:36:15.939Z,163
2023-01-10T07:37:16.015Z,175
2023-01-10T07:38:16.017Z,188
2023-01-10T07:39:16.633Z,201
2023-01-10T07:40:16.015Z,214
2023-01-10T07:41:16.390Z,228
2023-01-10T07:42:16.113Z,243
2023-01-10T07:43:15.943Z,258
2023-01-10T07:44:15.708Z,273
2023-01-10T07:45:16.069Z,290
2023-01-10T07:46:16.115Z,306
2023-01-10T07:47:16.291Z,323
2023-01-10T07:48:16.023Z,339
2023-01-10T07:49:16.337Z,355
2023-01-10T07:50:17.962Z,371
2023-01-10T07:51:16.328Z,388
2023-01-10T07:52:16.154Z,404
2023-01-10T07:53:16.011Z,420
2023-01-10T07:54:16.039Z,437
2023-01-10T07:55:16.205Z,452
2023-01-10T07:56:16.303Z,467
2023-01-10T07:57:16.674Z,482
2023-01-10T07:58:15.966Z,496
2023-01-10T07:59:16.112Z,510
2023-01-10T08:00:18.708Z,524
2023-01-10T08:01:16.513Z,539
2023-01-10T08:02:15.994Z,556
2023-01-10T08:03:16.299Z,572
2023-01-10T08:04:16.074Z,587
2023-01-10T08:05:15.995Z,602
2023-01-10T08:06:16.892Z,615.4
2023-01-10T08:07:16.131Z,625
2023-01-10T08:08:16.179Z,634.0
2023-01-10T08:09:16.028Z,643
2023-01-10T08:10:16.233Z,653
2023-01-10T08:11:16.508Z,666
2023-01-10T08:12:16.155Z,678
2023-01-10T08:13:18.900Z,689
2023-01-10T08:14:16.058Z,706
2023-01-10T08:15:15.923Z,723
2023-01-10T08:16:15.892Z,737
2023-01-10T08:17:16.547Z,752
2023-01-10T08:18:16.478Z,769
2023-01-10T08:19:16.876Z,785
2023-01-10T08:20:16.343Z,800
2023-01-10T08:21:16.280Z,810
2023-01-10T08:22:16.270Z,821
2023-01-10T08:23:16.344Z,831.7
2023-01-10T08:24:16.036Z,840
2023-01-10T08:25:16.397Z,846.9
2023-01-10T08:26:16.039Z,831
2023-01-10T08:27:16.071Z,840
2023-01-10T08:28:16.383Z,895
2023-01-10T08:29:16.226Z,918
2023-01-10T08:30:16.556Z,935
2023-01-10T08:31:16.119Z,956
2023-01-10T08:32:15.962Z,975
2023-01-10T08:33:16.444Z,993
2023-01-10T08:34:16.068Z,1018
2023-01-10T08:35:15.816Z,1046
2023-01-10T08:36:15.745Z,1069
2023-01-10T08:37:16.312Z,1091
2023-01-10T08:38:16.031Z,1107
2023-01-10T08:39:16.347Z,1119
2023-01-10T08:40:16.173Z,1131
2023-01-10T08:41:15.855Z,1141.
2023-01-10T08:42:15.886Z,1147.
2023-01-10T08:43:16.103Z,1151.
2023-01-10T08:44:16.005Z,1157.
2023-01-10T08:45:16.195Z,1170
2023-01-10T08:46:16.044Z,1176.
2023-01-10T08:47:16.390Z,1190
2023-01-10T08:48:15.812Z,1240
2023-01-10T08:49:15.857Z,1320
2023-01-10T08:50:15.660Z,1310
2023-01-10T08:51:15.968Z,1284
2023-01-10T08:52:15.619Z,1275.
2023-01-10T08:53:16.041Z,1279.
2023-01-10T08:54:15.661Z,1286.
2023-01-10T08:55:16.457Z,1292.
2023-01-10T08:56:15.926Z,1301
2023-01-10T08:57:15.854Z,1311
2023-01-10T08:58:15.680Z,1324
2023-01-10T08:59:15.770Z,1337
2023-01-10T09:00:16.089Z,1352
2023-01-10T09:01:16.128Z,1367
2023-01-10T09:02:16.321Z,1375.
2023-01-10T09:03:16.154Z,1378.
2023-01-10T09:04:15.910Z,1390
2023-01-10T09:05:26.768Z,1405
2023-01-10T09:06:16.064Z,1423
2023-01-10T09:07:16.237Z,1441
2023-01-10T09:08:16.151Z,1457
2023-01-10T09:09:16.635Z,1471.
2023-01-10T09:10:16.078Z,1480
2023-01-10T09:11:16.055Z,1488.
2023-01-10T09:12:15.823Z,1502
2023-01-10T09:13:16.033Z,1510.
2023-01-10T09:14:16.013Z,1518
2023-01-10T09:15:16.219Z,1531
2023-01-10T09:16:16.131Z,1547
2023-01-10T09:17:16.317Z,1557.
2023-01-10T09:18:16.293Z,1569
2023-01-10T09:19:16.017Z,1577.
2023-01-10T09:20:15.819Z,1582.
2023-01-10T09:21:15.917Z,1595
2023-01-10T09:22:15.524Z,1624
2023-01-10T09:23:16.437Z,1650
2023-01-10T09:24:15.954Z,1690
2023-01-10T09:25:16.111Z,1730
2023-01-10T09:26:15.796Z,1780
2023-01-10T09:27:16.031Z,1840
2023-01-10T09:28:15.782Z,1920
2023-01-10T09:29:20.912Z,2000
2023-01-10T09:30:15.970Z,2050
2023-01-10T09:31:16.039Z,2088
2023-01-10T09:32:15.948Z,2120
2023-01-10T09:33:25.279Z,2150
2023-01-10T09:34:16.153Z,2190
2023-01-10T09:35:16.193Z,2230
2023-01-10T09:36:16.142Z,2263
2023-01-10T09:37:16.556Z,2290
2023-01-10T09:38:16.159Z,2327
2023-01-10T09:39:30.037Z,2333.
2023-01-10T09:40:15.803Z,2310
2023-01-10T09:41:15.957Z,2301
2023-01-10T09:42:15.607Z,2340
2023-01-10T09:43:15.579Z,2396
2023-01-10T09:44:16.031Z,2376
2023-01-10T09:45:16.336Z,2381.
2023-01-10T09:46:15.895Z,2392
2023-01-10T09:47:22.526Z,2415
2023-01-10T09:48:15.587Z,2440
2023-01-10T09:49:15.846Z,2490
2023-01-10T09:50:16.005Z,2530
2023-01-10T09:51:15.765Z,2580
2023-01-10T09:52:16.356Z,2650
2023-01-10T09:53:15.869Z,2750
2023-01-10T09:54:15.903Z,2820
2023-01-10T09:55:15.987Z,2880
2023-01-10T09:56:15.876Z,2907
2023-01-10T09:57:15.725Z,2898
2023-01-10T09:58:15.542Z,2886
2023-01-10T09:59:15.690Z,2850
2023-01-10T10:00:16.182Z,2822
2023-01-10T10:01:16.462Z,2809.
2023-01-10T10:02:15.994Z,2817
2023-01-10T10:03:16.145Z,2780
2023-01-10T10:04:16.135Z,2758
2023-01-10T10:05:16.352Z,2781
2023-01-10T10:06:16.135Z,2810
2023-01-10T10:07:16.044Z,2890
2023-01-10T10:08:15.736Z,2990
2023-01-10T10:09:16.032Z,3060
2023-01-10T10:10:16.205Z,3100
2023-01-10T10:11:16.006Z,3130
2023-01-10T10:12:15.887Z,3180
2023-01-10T10:13:26.351Z,3240
2023-01-10T10:14:16.266Z,3286
2023-01-10T10:15:16.231Z,3292.
2023-01-10T10:16:15.924Z,3285
2023-01-10T10:17:16.270Z,3266
2023-01-10T10:18:15.878Z,3263
2023-01-10T10:19:15.993Z,3282
2023-01-10T10:20:15.849Z,3276
2023-01-10T10:21:16.020Z,3290
2023-01-10T10:22:16.898Z,3317.
2023-01-10T10:23:16.223Z,3318.
2023-01-10T10:24:16.009Z,3315.
2023-01-10T10:25:16.693Z,3320
2023-01-10T10:26:15.799Z,3350
2023-01-10T10:27:16.154Z,3400
2023-01-10T10:28:16.041Z,3400
2023-01-10T10:29:15.984Z,3500
2023-01-10T10:30:16.215Z,3700
2023-01-10T10:31:16.213Z,3800
2023-01-10T10:32:16.202Z,3900
2023-01-10T10:33:16.391Z,4038
2023-01-10T10:34:15.916Z,4000
2023-01-10T10:35:16.283Z,4200
2023-01-10T10:36:16.151Z,4330
2023-01-10T10:37:16.060Z,4400
2023-01-10T10:38:15.806Z,4500
2023-01-10T10:39:16.044Z,4500
2023-01-10T10:40:16.189Z,4431
2023-01-10T10:41:16.249Z,4390
2023-01-10T10:42:16.585Z,4385
2023-01-10T10:43:15.717Z,4384
2023-01-10T10:44:15.884Z,4390
2023-01-10T10:45:16.342Z,4400
2023-01-10T10:46:16.209Z,4480
2023-01-10T10:47:16.042Z,4400
2023-01-10T10:48:15.939Z,4359
2023-01-10T10:49:18.652Z,4382.
2023-01-10T10:50:16.379Z,4377.
2023-01-10T10:51:15.848Z,4360
2023-01-10T10:52:16.005Z,4334
2023-01-10T10:53:15.932Z,4400
2023-01-10T10:54:15.688Z,4490
2023-01-10T10:55:16.164Z,4540
2023-01-10T10:56:15.735Z,4500
2023-01-10T10:57:16.030Z,4700
2023-01-10T10:58:16.210Z,4900
2023-01-10T10:59:16.296Z,5000
2023-01-10T11:00:17.376Z,5200
2023-01-10T11:01:16.225Z,5306
2023-01-10T11:02:15.860Z,5260
2023-01-10T11:03:15.888Z,5100
2023-01-10T11:04:15.929Z,5042
2023-01-10T11:05:16.527Z,5048.
2023-01-10T11:06:16.362Z,5044.
2023-01-10T11:07:16.488Z,5000
2023-01-10T11:08:16.435Z,4991.
2023-01-10T11:09:16.117Z,5010
2023-01-10T11:10:16.229Z,5000
2023-01-10T11:11:16.036Z,4970
2023-01-10T11:12:16.453Z,5000
2023-01-10T11:13:16.017Z,5029.
2023-01-10T11:14:15.957Z,4990
2023-01-10T11:15:16.099Z,4946
2023-01-10T11:16:16.061Z,4930
2023-01-10T11:17:16.545Z,4960
2023-01-10T11:18:16.023Z,4930
2023-01-10T11:19:16.708Z,4840
2023-01-10T11:20:16.399Z,4790
2023-01-10T11:21:16.771Z,4756
2023-01-10T11:22:16.354Z,4736
2023-01-10T11:23:16.878Z,4728.
2023-01-10T11:24:16.004Z,4728.
2023-01-10T11:25:16.506Z,4731
2023-01-10T11:26:15.927Z,4740
2023-01-10T11:27:16.453Z,4780
2023-01-10T11:28:16.186Z,4820
2023-01-10T11:29:16.328Z,4880
2023-01-10T11:30:16.485Z,4940
2023-01-10T11:31:16.304Z,5020
2023-01-10T11:32:16.111Z,5090
2023-01-10T11:33:16.107Z,5130
2023-01-10T11:34:16.272Z,5164
2023-01-10T11:35:17.011Z,5186
2023-01-10T11:36:16.312Z,5198
2023-01-10T11:37:15.889Z,5217
2023-01-10T11:38:16.079Z,5250
2023-01-10T11:39:16.531Z,5300
2023-01-10T11:40:18.519Z,5353
2023-01-10T11:41:16.908Z,5350
2023-01-10T11:42:16.435Z,5300
2023-01-10T11:43:16.369Z,5250
2023-01-10T11:44:17.989Z,5210
2023-01-10T11:45:16.541Z,5183
2023-01-10T11:46:15.877Z,5179.
2023-01-10T11:47:16.289Z,5186
2023-01-10T11:48:22.960Z,5198
2023-01-10T11:49:16.127Z,5214
2023-01-10T11:50:16.230Z,5218
2023-01-10T11:51:16.310Z,5180
2023-01-10T11:52:15.472Z,5170
2023-01-10T11:53:16.304Z,5151
2023-01-10T11:54:15.804Z,5147.
2023-01-10T11:55:16.512Z,5157
2023-01-10T11:56:16.269Z,5175
2023-01-10T11:57:16.711Z,5205
2023-01-10T11:58:15.895Z,5235
2023-01-10T11:59:16.156Z,5248.
2023-01-10T12:00:24.455Z,5254
2023-01-10T12:01:16.031Z,5273
2023-01-10T12:02:24.219Z,5290
2023-01-10T12:03:16.564Z,5327
2023-01-10T12:04:24.290Z,5350
2023-01-10T12:05:16.643Z,5385
2023-01-10T12:06:30.542Z,5413
2023-01-10T12:07:15.901Z,5360
2023-01-10T12:08:30.051Z,5380
2023-01-10T12:09:16.167Z,5500
2023-01-10T12:10:16.754Z,5440
2023-01-10T12:11:16.020Z,5400
2023-01-10T12:12:30.058Z,5540
2023-01-10T12:13:16.140Z,5550
2023-01-10T12:14:16.248Z,5553
2023-01-10T12:15:16.548Z,5560
2023-01-10T12:16:16.098Z,5573
2023-01-10T12:17:16.729Z,5600
2023-01-10T12:18:16.519Z,5624
2023-01-10T12:19:16.726Z,5644
2023-01-10T12:20:16.224Z,5657
2023-01-10T12:21:16.554Z,5645
2023-01-10T12:22:16.565Z,5610
2023-01-10T12:23:16.586Z,5540
2023-01-10T12:24:16.502Z,5480
2023-01-10T12:25:16.438Z,5430
2023-01-10T12:26:15.687Z,5390
2023-01-10T12:27:16.073Z,5350
2023-01-10T12:28:16.004Z,5300
2023-01-10T12:29:16.378Z,5230
2023-01-10T12:30:16.583Z,5160
2023-01-10T12:31:16.115Z,5110
2023-01-10T12:32:16.159Z,5079
2023-01-10T12:33:16.532Z,5050
2023-01-10T12:34:16.115Z,5010
2023-01-10T12:35:16.124Z,4970
2023-01-10T12:36:16.272Z,4949
2023-01-10T12:37:16.124Z,4910
2023-01-10T12:38:15.922Z,4840
2023-01-10T12:39:16.052Z,4700
2023-01-10T12:40:16.321Z,4600
2023-01-10T12:41:16.153Z,4400
2023-01-10T12:42:16.185Z,4300
2023-01-10T12:43:16.071Z,4200
2023-01-10T12:44:16.027Z,4100
2023-01-10T12:45:16.376Z,4020
2023-01-10T12:46:33.574Z,3940
2023-01-10T12:47:16.435Z,3870
2023-01-10T12:48:16.793Z,3810
2023-01-10T12:49:15.895Z,3730
2023-01-10T12:50:16.027Z,3640
2023-01-10T12:51:15.879Z,3550
2023-01-10T12:52:15.630Z,3460
2023-01-10T12:53:15.688Z,3390
2023-01-10T12:54:16.464Z,3340
2023-01-10T12:55:16.415Z,3305
2023-01-10T12:56:15.839Z,3279
2023-01-10T12:57:16.109Z,3274.
2023-01-10T12:58:16.389Z,3288
2023-01-10T12:59:18.229Z,3309
2023-01-10T13:00:17.308Z,3323.
2023-01-10T13:01:16.718Z,3325.
2023-01-10T13:02:16.543Z,3322.
2023-01-10T13:03:15.763Z,3318.
2023-01-10T13:04:16.420Z,3322
2023-01-10T13:05:16.621Z,3339
2023-01-10T13:06:16.207Z,3359
2023-01-10T13:07:15.832Z,3381
2023-01-10T13:08:15.407Z,3407
2023-01-10T13:09:16.473Z,3427
2023-01-10T13:10:16.261Z,3446
2023-01-10T13:11:15.958Z,3449.
2023-01-10T13:12:16.142Z,3449.
2023-01-10T13:13:16.121Z,3446.
2023-01-10T13:14:16.140Z,3433
2023-01-10T13:15:16.809Z,3412
2023-01-10T13:16:15.839Z,3393
2023-01-10T13:17:16.201Z,3376
2023-01-10T13:18:16.241Z,3356
2023-01-10T13:19:16.371Z,3330
2023-01-10T13:20:16.309Z,3310
2023-01-10T13:21:16.406Z,3280
2023-01-10T13:22:16.323Z,3240
2023-01-10T13:23:16.423Z,3170
2023-01-10T13:24:16.403Z,3080
2023-01-10T13:25:16.586Z,2900
2023-01-10T13:26:15.714Z,2800
2023-01-10T13:27:15.825Z,2700
2023-01-10T13:28:15.869Z,2670
2023-01-10T13:29:16.390Z,2580
2023-01-10T13:30:16.705Z,2510
2023-01-10T13:31:15.913Z,2440
2023-01-10T13:32:15.913Z,2360
2023-01-10T13:33:15.792Z,2270
2023-01-10T13:34:16.186Z,2170
2023-01-10T13:35:16.860Z,2080
2023-01-10T13:36:16.126Z,2010
2023-01-10T13:37:16.456Z,1950
2023-01-10T13:38:16.247Z,1890
2023-01-10T13:39:16.461Z,1840
2023-01-10T13:40:16.485Z,1790
2023-01-10T13:41:16.025Z,1750
2023-01-10T13:42:16.028Z,1700
2023-01-10T13:43:16.526Z,1660
2023-01-10T13:44:16.399Z,1627
2023-01-10T13:45:17.068Z,1606
2023-01-10T13:46:16.870Z,1600.
2023-01-10T13:47:15.934Z,1608
2023-01-10T13:48:15.764Z,1623